sensor_id;sensor_type;location;lat;lon;timestamp;pressure;altitude;pressure_sealevel;temperature;humidity
33286;BME280;19656;50.096;20.014;2022-07-23T00:01:20;99016.08;;;25.26;52.09
33286;BME280;19656;50.096;20.014;2022-07-23T00:06:24;99012.04;;;25.28;51.93
33286;BME280;19656;50.096;20.014;2022-07-23T00:11:27;99016.85;;;25.33;51.79
33286;BME280;19656;50.096;20.014;2022-07-23T00:16:30;99010.79;;;25.35;51.71
33286;BME280;19656;50.096;20.014;2022-07-23T00:21:33;99011.06;;;25.30;51.76
33286;BME280;19656;50.096;20.014;2022-07-23T00:26:36;99006.06;;;25.22;51.94
33286;BME280;19656;50.096;20.014;2022-07-23T00:31:39;99002.95;;;25.13;52.05
33286;BME280;19656;50.096;20.014;2022-07-23T00:36:42;99007.85;;;25.04;52.24
33286;BME280;19656;50.096;20.014;2022-07-23T00:41:45;99015.16;;;24.93;52.37
33286;BME280;19656;50.096;20.014;2022-07-23T00:46:51;99016.63;;;24.83;52.65
33286;BME280;19656;50.096;20.014;2022-07-23T00:51:57;99016.80;;;24.74;52.83
33286;BME280;19656;50.096;20.014;2022-07-23T00:57:00;99021.92;;;24.69;53.15
33286;BME280;19656;50.096;20.014;2022-07-23T01:02:03;99023.09;;;24.65;53.18
33286;BME280;19656;50.096;20.014;2022-07-23T01:07:07;99020.27;;;24.60;53.31
33286;BME280;19656;50.096;20.014;2022-07-23T01:12:10;99019.36;;;24.53;53.32
33286;BME280;19656;50.096;20.014;2022-07-23T01:17:13;99020.77;;;24.44;53.40
33286;BME280;19656;50.096;20.014;2022-07-23T01:22:18;99019.35;;;24.36;53.54
33286;BME280;19656;50.096;20.014;2022-07-23T01:27:21;99018.17;;;24.35;53.55
33286;BME280;19656;50.096;20.014;2022-07-23T01:32:31;99014.92;;;24.42;53.51
33286;BME280;19656;50.096;20.014;2022-07-23T01:37:34;99013.58;;;24.34;53.46
33286;BME280;19656;50.096;20.014;2022-07-23T01:42:38;99013.36;;;24.22;53.48
33286;BME280;19656;50.096;20.014;2022-07-23T01:47:45;99016.63;;;24.10;53.53
33286;BME280;19656;50.096;20.014;2022-07-23T01:52:49;99023.56;;;24.01;53.73
33286;BME280;19656;50.096;20.014;2022-07-23T01:57:51;99022.48;;;23.92;53.89
33286;BME280;19656;50.096;20.014;2022-07-23T02:02:57;99021.30;;;23.85;53.94
33286;BME280;19656;50.096;20.014;2022-07-23T02:08:03;99014.45;;;23.94;54.13
33286;BME280;19656;50.096;20.014;2022-07-23T02:13:08;99013.81;;;24.00;54.08
33286;BME280;19656;50.096;20.014;2022-07-23T02:18:11;99015.92;;;23.99;54.02
33286;BME280;19656;50.096;20.014;2022-07-23T02:23:13;99015.08;;;23.96;53.92
33286;BME280;19656;50.096;20.014;2022-07-23T02:28:16;99019.08;;;23.96;53.95
33286;BME280;19656;50.096;20.014;2022-07-23T02:33:19;99018.48;;;23.95;53.78
33286;BME280;19656;50.096;20.014;2022-07-23T02:38:22;99021.00;;;23.93;53.90
33286;BME280;19656;50.096;20.014;2022-07-23T02:43:25;99017.33;;;23.94;53.96
33286;BME280;19656;50.096;20.014;2022-07-23T02:48:28;99015.09;;;23.93;53.94
33286;BME280;19656;50.096;20.014;2022-07-23T02:53:34;99011.87;;;23.92;53.92
33286;BME280;19656;50.096;20.014;2022-07-23T02:58:37;99017.91;;;23.92;53.89
33286;BME280;19656;50.096;20.014;2022-07-23T03:03:40;99019.78;;;23.88;53.75
33286;BME280;19656;50.096;20.014;2022-07-23T03:08:43;99018.59;;;23.83;53.72
33286;BME280;19656;50.096;20.014;2022-07-23T03:13:46;99016.80;;;23.77;53.62
33286;BME280;19656;50.096;20.014;2022-07-23T03:18:48;99011.83;;;23.71;53.72
33286;BME280;19656;50.096;20.014;2022-07-23T03:23:51;99015.20;;;23.67;53.67
33286;BME280;19656;50.096;20.014;2022-07-23T03:28:54;99013.12;;;23.65;53.79
33286;BME280;19656;50.096;20.014;2022-07-23T03:33:58;99006.77;;;23.63;53.77
33286;BME280;19656;50.096;20.014;2022-07-23T03:39:01;99007.55;;;23.61;53.70
33286;BME280;19656;50.096;20.014;2022-07-23T03:44:05;99007.41;;;23.61;53.75
33286;BME280;19656;50.096;20.014;2022-07-23T03:49:08;99005.16;;;23.61;53.88
33286;BME280;19656;50.096;20.014;2022-07-23T03:54:11;99004.21;;;23.63;53.87
33286;BME280;19656;50.096;20.014;2022-07-23T03:59:14;99004.79;;;23.66;53.95
33286;BME280;19656;50.096;20.014;2022-07-23T04:04:25;99000.94;;;23.71;53.91
33286;BME280;19656;50.096;20.014;2022-07-23T04:09:28;99007.02;;;23.72;53.92
33286;BME280;19656;50.096;20.014;2022-07-23T04:14:31;99004.77;;;23.76;54.05
33286;BME280;19656;50.096;20.014;2022-07-23T04:19:34;99006.79;;;23.80;54.12
33286;BME280;19656;50.096;20.014;2022-07-23T04:24:43;99006.30;;;23.87;54.25
33286;BME280;19656;50.096;20.014;2022-07-23T04:29:46;98999.48;;;23.94;54.18
33286;BME280;19656;50.096;20.014;2022-07-23T04:34:49;99002.87;;;24.00;54.04
33286;BME280;19656;50.096;20.014;2022-07-23T04:39:53;98990.91;;;24.04;53.93
33286;BME280;19656;50.096;20.014;2022-07-23T04:44:59;98990.19;;;24.08;53.95
33286;BME280;19656;50.096;20.014;2022-07-23T04:50:03;98992.78;;;24.16;53.93
33286;BME280;19656;50.096;20.014;2022-07-23T04:55:07;98988.48;;;24.24;53.81
33286;BME280;19656;50.096;20.014;2022-07-23T05:00:10;98995.60;;;24.35;53.74
33286;BME280;19656;50.096;20.014;2022-07-23T05:05:13;99002.75;;;24.43;53.63
33286;BME280;19656;50.096;20.014;2022-07-23T05:10:17;98998.45;;;24.50;53.44
33286;BME280;19656;50.096;20.014;2022-07-23T05:15:20;98995.46;;;24.58;53.31
33286;BME280;19656;50.096;20.014;2022-07-23T05:20:23;98993.20;;;24.65;53.35
33286;BME280;19656;50.096;20.014;2022-07-23T05:25:26;98994.20;;;24.73;53.30
33286;BME280;19656;50.096;20.014;2022-07-23T05:30:29;98992.52;;;24.81;53.26
33286;BME280;19656;50.096;20.014;2022-07-23T05:35:34;98995.27;;;24.91;53.39
33286;BME280;19656;50.096;20.014;2022-07-23T05:40:56;98998.77;;;25.04;53.18
33286;BME280;19656;50.096;20.014;2022-07-23T05:45:59;98998.85;;;25.13;53.14
33286;BME280;19656;50.096;20.014;2022-07-23T05:51:02;98994.70;;;25.22;53.24
33286;BME280;19656;50.096;20.014;2022-07-23T05:56:10;98985.05;;;25.32;52.98
33286;BME280;19656;50.096;20.014;2022-07-23T06:01:13;98981.11;;;25.38;53.04
33286;BME280;19656;50.096;20.014;2022-07-23T06:06:22;98982.71;;;25.43;52.85
33286;BME280;19656;50.096;20.014;2022-07-23T06:11:26;98982.39;;;25.51;52.93
33286;BME280;19656;50.096;20.014;2022-07-23T06:16:28;98979.63;;;25.59;52.74
33286;BME280;19656;50.096;20.014;2022-07-23T06:21:32;98979.14;;;25.68;52.87
33286;BME280;19656;50.096;20.014;2022-07-23T06:26:49;98972.15;;;25.76;52.69
33286;BME280;19656;50.096;20.014;2022-07-23T06:31:52;98966.12;;;25.84;52.66
33286;BME280;19656;50.096;20.014;2022-07-23T06:36:55;98960.18;;;25.96;52.59
33286;BME280;19656;50.096;20.014;2022-07-23T06:41:58;98960.77;;;26.11;52.65
33286;BME280;19656;50.096;20.014;2022-07-23T06:47:14;98957.20;;;26.25;52.46
33286;BME280;19656;50.096;20.014;2022-07-23T06:52:17;98956.29;;;26.38;52.39
33286;BME280;19656;50.096;20.014;2022-07-23T06:57:20;98951.98;;;26.50;52.39
33286;BME280;19656;50.096;20.014;2022-07-23T07:02:24;98946.23;;;26.62;52.27
33286;BME280;19656;50.096;20.014;2022-07-23T07:07:29;98940.63;;;26.73;52.01
33286;BME280;19656;50.096;20.014;2022-07-23T07:12:32;98938.27;;;26.84;52.04
33286;BME280;19656;50.096;20.014;2022-07-23T07:17:35;98938.30;;;26.96;52.09
33286;BME280;19656;50.096;20.014;2022-07-23T07:22:38;98942.34;;;27.07;51.81
33286;BME280;19656;50.096;20.014;2022-07-23T07:27:41;98938.66;;;27.15;51.70
33286;BME280;19656;50.096;20.014;2022-07-23T07:32:46;98936.73;;;27.28;51.75
33286;BME280;19656;50.096;20.014;2022-07-23T07:37:59;98929.64;;;27.43;51.59
33286;BME280;19656;50.096;20.014;2022-07-23T07:43:02;98917.92;;;27.57;51.45
33286;BME280;19656;50.096;20.014;2022-07-23T07:48:06;98915.77;;;27.71;51.32
33286;BME280;19656;50.096;20.014;2022-07-23T07:53:09;98912.89;;;27.81;51.19
33286;BME280;19656;50.096;20.014;2022-07-23T07:58:12;98919.47;;;27.89;51.01
33286;BME280;19656;50.096;20.014;2022-07-23T08:03:15;98920.35;;;27.98;50.55
33286;BME280;19656;50.096;20.014;2022-07-23T08:08:18;98926.75;;;28.09;50.34
33286;BME280;19656;50.096;20.014;2022-07-23T08:13:21;98928.77;;;28.17;50.00
33286;BME280;19656;50.096;20.014;2022-07-23T08:18:24;98931.50;;;28.24;49.85
33286;BME280;19656;50.096;20.014;2022-07-23T08:23:27;98937.85;;;28.33;49.65
33286;BME280;19656;50.096;20.014;2022-07-23T08:28:32;98932.97;;;28.47;49.63
33286;BME280;19656;50.096;20.014;2022-07-23T08:33:35;98935.77;;;28.60;49.34
33286;BME280;19656;50.096;20.014;2022-07-23T08:38:38;98938.10;;;28.71;48.97
33286;BME280;19656;50.096;20.014;2022-07-23T08:43:42;98940.34;;;28.82;48.32
33286;BME280;19656;50.096;20.014;2022-07-23T08:48:48;98936.71;;;28.99;47.72
33286;BME280;19656;50.096;20.014;2022-07-23T08:53:52;98929.38;;;29.13;47.20
33286;BME280;19656;50.096;20.014;2022-07-23T08:58:55;98920.51;;;29.26;47.14
33286;BME280;19656;50.096;20.014;2022-07-23T09:03:58;98908.38;;;29.38;46.71
33286;BME280;19656;50.096;20.014;2022-07-23T09:09:16;98898.72;;;29.53;46.52
33286;BME280;19656;50.096;20.014;2022-07-23T09:14:45;98887.72;;;29.71;46.44
33286;BME280;19656;50.096;20.014;2022-07-23T09:19:51;98891.33;;;29.90;46.12
33286;BME280;19656;50.096;20.014;2022-07-23T09:30:12;98889.30;;;30.25;45.27
33286;BME280;19656;50.096;20.014;2022-07-23T09:35:15;98890.02;;;30.42;45.17
33286;BME280;19656;50.096;20.014;2022-07-23T09:40:18;98890.22;;;30.60;45.05
33286;BME280;19656;50.096;20.014;2022-07-23T09:45:21;98890.25;;;30.73;44.72
33286;BME280;19656;50.096;20.014;2022-07-23T09:50:24;98879.45;;;30.83;44.18
33286;BME280;19656;50.096;20.014;2022-07-23T09:55:33;98863.35;;;30.92;43.81
33286;BME280;19656;50.096;20.014;2022-07-23T10:00:40;98865.59;;;31.05;43.25
33286;BME280;19656;50.096;20.014;2022-07-23T10:05:44;98861.15;;;31.12;42.51
33286;BME280;19656;50.096;20.014;2022-07-23T10:11:07;98858.59;;;31.13;42.40
33286;BME280;19656;50.096;20.014;2022-07-23T10:16:20;98856.06;;;31.27;42.02
33286;BME280;19656;50.096;20.014;2022-07-23T10:21:49;98857.10;;;31.42;41.68
33286;BME280;19656;50.096;20.014;2022-07-23T10:32:30;98852.39;;;31.95;41.15
33286;BME280;19656;50.096;20.014;2022-07-23T10:37:42;98850.96;;;32.15;40.78
33286;BME280;19656;50.096;20.014;2022-07-23T10:42:47;98850.16;;;32.18;40.47
33286;BME280;19656;50.096;20.014;2022-07-23T10:47:50;98840.73;;;32.19;40.28
33286;BME280;19656;50.096;20.014;2022-07-23T10:58:09;98830.48;;;32.50;40.00
33286;BME280;19656;50.096;20.014;2022-07-23T11:03:33;98825.21;;;32.58;39.38
33286;BME280;19656;50.096;20.014;2022-07-23T11:08:39;98819.41;;;32.63;39.63
33286;BME280;19656;50.096;20.014;2022-07-23T11:13:45;98811.89;;;32.88;39.78
33286;BME280;19656;50.096;20.014;2022-07-23T11:34:38;98805.16;;;33.67;36.94
33286;BME280;19656;50.096;20.014;2022-07-23T11:39:43;98796.33;;;33.87;35.82
33286;BME280;19656;50.096;20.014;2022-07-23T11:44:50;98788.91;;;34.02;35.49
33286;BME280;19656;50.096;20.014;2022-07-23T11:49:56;98784.90;;;34.23;35.39
33286;BME280;19656;50.096;20.014;2022-07-23T11:55:06;98773.79;;;34.39;35.24
33286;BME280;19656;50.096;20.014;2022-07-23T12:00:15;98768.38;;;34.55;35.07
33286;BME280;19656;50.096;20.014;2022-07-23T12:05:21;98763.31;;;34.70;34.61
33286;BME280;19656;50.096;20.014;2022-07-23T12:10:27;98760.02;;;34.82;34.15
33286;BME280;19656;50.096;20.014;2022-07-23T12:15:36;98748.52;;;34.94;33.49
33286;BME280;19656;50.096;20.014;2022-07-23T12:20:44;98746.47;;;35.07;33.21
33286;BME280;19656;50.096;20.014;2022-07-23T12:25:49;98734.66;;;35.04;32.97
33286;BME280;19656;50.096;20.014;2022-07-23T12:30:55;98733.26;;;34.98;32.83
33286;BME280;19656;50.096;20.014;2022-07-23T12:36:04;98725.10;;;34.91;32.46
33286;BME280;19656;50.096;20.014;2022-07-23T12:41:07;98717.75;;;34.87;32.68
33286;BME280;19656;50.096;20.014;2022-07-23T12:46:16;98720.48;;;34.88;32.40
33286;BME280;19656;50.096;20.014;2022-07-23T12:51:30;98714.04;;;34.91;32.74
33286;BME280;19656;50.096;20.014;2022-07-23T12:56:37;98702.98;;;34.97;32.43
33286;BME280;19656;50.096;20.014;2022-07-23T13:01:43;98700.70;;;35.13;32.58
33286;BME280;19656;50.096;20.014;2022-07-23T13:06:55;98694.64;;;35.28;32.10
33286;BME280;19656;50.096;20.014;2022-07-23T13:12:02;98690.90;;;35.30;32.35
33286;BME280;19656;50.096;20.014;2022-07-23T13:17:07;98690.23;;;35.32;32.68
33286;BME280;19656;50.096;20.014;2022-07-23T13:22:11;98683.73;;;35.20;31.85
33286;BME280;19656;50.096;20.014;2022-07-23T13:27:14;98682.02;;;35.01;31.99
33286;BME280;19656;50.096;20.014;2022-07-23T13:32:18;98679.05;;;34.84;31.76
33286;BME280;19656;50.096;20.014;2022-07-23T13:37:22;98673.49;;;34.75;32.12
33286;BME280;19656;50.096;20.014;2022-07-23T13:42:27;98665.77;;;34.76;32.35
33286;BME280;19656;50.096;20.014;2022-07-23T13:47:31;98662.86;;;34.73;32.17
33286;BME280;19656;50.096;20.014;2022-07-23T13:52:34;98659.65;;;34.78;31.89
33286;BME280;19656;50.096;20.014;2022-07-23T13:57:37;98649.02;;;34.89;32.02
33286;BME280;19656;50.096;20.014;2022-07-23T14:02:40;98649.63;;;34.97;31.97
33286;BME280;19656;50.096;20.014;2022-07-23T14:07:46;98643.23;;;34.87;32.07
33286;BME280;19656;50.096;20.014;2022-07-23T14:12:52;98640.05;;;34.49;31.37
33286;BME280;19656;50.096;20.014;2022-07-23T14:17:58;98639.56;;;34.16;31.49
33286;BME280;19656;50.096;20.014;2022-07-23T14:23:02;98622.63;;;33.90;31.53
33286;BME280;19656;50.096;20.014;2022-07-23T14:28:07;98601.41;;;33.61;31.72
33286;BME280;19656;50.096;20.014;2022-07-23T14:33:10;98596.65;;;33.32;32.13
33286;BME280;19656;50.096;20.014;2022-07-23T14:38:13;98594.61;;;33.05;32.34
33286;BME280;19656;50.096;20.014;2022-07-23T14:43:16;98596.29;;;32.85;32.56
33286;BME280;19656;50.096;20.014;2022-07-23T14:48:19;98604.31;;;32.67;32.92
33286;BME280;19656;50.096;20.014;2022-07-23T14:53:23;98630.55;;;32.52;33.25
33286;BME280;19656;50.096;20.014;2022-07-23T14:58:27;98644.04;;;32.41;33.43
33286;BME280;19656;50.096;20.014;2022-07-23T15:03:31;98629.80;;;32.31;33.68
33286;BME280;19656;50.096;20.014;2022-07-23T15:08:44;98631.65;;;32.21;34.13
33286;BME280;19656;50.096;20.014;2022-07-23T15:13:49;98642.00;;;32.10;34.17
33286;BME280;19656;50.096;20.014;2022-07-23T15:18:52;98752.32;;;31.93;33.92
33286;BME280;19656;50.096;20.014;2022-07-23T15:23:56;98744.97;;;31.29;33.78
33286;BME280;19656;50.096;20.014;2022-07-23T15:29:03;98808.20;;;30.62;34.35
33286;BME280;19656;50.096;20.014;2022-07-23T15:34:09;98853.28;;;29.62;37.03
33286;BME280;19656;50.096;20.014;2022-07-23T15:39:12;98836.57;;;28.46;39.55
33286;BME280;19656;50.096;20.014;2022-07-23T15:44:15;98768.90;;;27.71;41.75
33286;BME280;19656;50.096;20.014;2022-07-23T15:49:31;98762.17;;;27.26;43.42
33286;BME280;19656;50.096;20.014;2022-07-23T15:54:34;98770.56;;;27.07;44.66
33286;BME280;19656;50.096;20.014;2022-07-23T15:59:38;98805.03;;;26.93;46.04
33286;BME280;19656;50.096;20.014;2022-07-23T16:04:43;98853.63;;;26.84;46.90
33286;BME280;19656;50.096;20.014;2022-07-23T16:09:46;98866.16;;;26.77;47.32
33286;BME280;19656;50.096;20.014;2022-07-23T16:14:49;98856.64;;;26.72;47.64
33286;BME280;19656;50.096;20.014;2022-07-23T16:19:52;98859.83;;;26.72;47.91
33286;BME280;19656;50.096;20.014;2022-07-23T16:24:55;98877.50;;;26.69;48.35
33286;BME280;19656;50.096;20.014;2022-07-23T16:29:58;98838.84;;;26.65;48.97
33286;BME280;19656;50.096;20.014;2022-07-23T16:35:02;98737.72;;;26.69;49.91
33286;BME280;19656;50.096;20.014;2022-07-23T16:40:15;98734.04;;;26.74;50.54
33286;BME280;19656;50.096;20.014;2022-07-23T16:45:18;98774.58;;;26.76;51.05
33286;BME280;19656;50.096;20.014;2022-07-23T16:50:21;98788.93;;;26.85;51.36
33286;BME280;19656;50.096;20.014;2022-07-23T16:55:25;98810.77;;;26.94;51.62
33286;BME280;19656;50.096;20.014;2022-07-23T17:00:27;98832.11;;;26.96;51.75
33286;BME280;19656;50.096;20.014;2022-07-23T17:05:30;98844.95;;;26.86;52.08
33286;BME280;19656;50.096;20.014;2022-07-23T17:10:34;98866.38;;;26.82;52.55
33286;BME280;19656;50.096;20.014;2022-07-23T17:15:37;98903.71;;;26.84;52.77
33286;BME280;19656;50.096;20.014;2022-07-23T17:20:40;98917.98;;;26.84;52.79
33286;BME280;19656;50.096;20.014;2022-07-23T17:25:43;98924.02;;;26.87;52.96
33286;BME280;19656;50.096;20.014;2022-07-23T17:30:47;98941.70;;;26.87;53.05
33286;BME280;19656;50.096;20.014;2022-07-23T17:35:50;98951.71;;;26.87;53.12
33286;BME280;19656;50.096;20.014;2022-07-23T17:40:55;98960.33;;;26.89;53.39
33286;BME280;19656;50.096;20.014;2022-07-23T17:45:58;98971.46;;;26.89;53.32
33286;BME280;19656;50.096;20.014;2022-07-23T17:51:01;98969.82;;;26.79;53.13
33286;BME280;19656;50.096;20.014;2022-07-23T17:56:05;98979.80;;;26.63;53.27
33286;BME280;19656;50.096;20.014;2022-07-23T18:01:08;98972.44;;;26.47;53.55
33286;BME280;19656;50.096;20.014;2022-07-23T18:06:12;98938.79;;;26.45;54.09
33286;BME280;19656;50.096;20.014;2022-07-23T18:11:15;98922.44;;;26.42;54.19
33286;BME280;19656;50.096;20.014;2022-07-23T18:16:19;98934.73;;;26.34;54.40
33286;BME280;19656;50.096;20.014;2022-07-23T18:21:22;98953.31;;;26.41;54.98
33286;BME280;19656;50.096;20.014;2022-07-23T18:26:25;98968.56;;;26.41;54.89
33286;BME280;19656;50.096;20.014;2022-07-23T18:31:28;98995.17;;;26.39;54.88
33286;BME280;19656;50.096;20.014;2022-07-23T18:36:31;99030.20;;;26.45;54.79
33286;BME280;19656;50.096;20.014;2022-07-23T18:41:34;99051.27;;;26.39;54.68
33286;BME280;19656;50.096;20.014;2022-07-23T18:46:37;99034.07;;;26.41;55.03
33286;BME280;19656;50.096;20.014;2022-07-23T18:51:40;98996.13;;;26.47;55.44
33286;BME280;19656;50.096;20.014;2022-07-23T18:56:43;98975.79;;;26.46;55.83
33286;BME280;19656;50.096;20.014;2022-07-23T19:01:46;98977.69;;;26.35;55.76
33286;BME280;19656;50.096;20.014;2022-07-23T19:06:50;98997.52;;;26.17;55.62
33286;BME280;19656;50.096;20.014;2022-07-23T19:11:54;99009.03;;;26.05;56.13
33286;BME280;19656;50.096;20.014;2022-07-23T19:16:57;98990.77;;;26.13;56.39
33286;BME280;19656;50.096;20.014;2022-07-23T19:22:00;98982.20;;;26.13;56.32
33286;BME280;19656;50.096;20.014;2022-07-23T19:27:04;98965.31;;;26.02;56.03
33286;BME280;19656;50.096;20.014;2022-07-23T19:32:08;98965.22;;;25.84;56.18
33286;BME280;19656;50.096;20.014;2022-07-23T19:37:11;98965.98;;;25.73;56.54
33286;BME280;19656;50.096;20.014;2022-07-23T19:42:16;98952.89;;;25.65;56.45
33286;BME280;19656;50.096;20.014;2022-07-23T19:47:20;98946.27;;;25.57;56.74
33286;BME280;19656;50.096;20.014;2022-07-23T19:52:23;98960.06;;;25.49;57.00
33286;BME280;19656;50.096;20.014;2022-07-23T19:57:26;98967.81;;;25.56;57.63
33286;BME280;19656;50.096;20.014;2022-07-23T20:02:29;98972.97;;;25.68;57.68
33286;BME280;19656;50.096;20.014;2022-07-23T20:07:32;98975.83;;;25.57;57.30
33286;BME280;19656;50.096;20.014;2022-07-23T20:12:35;98985.33;;;25.44;57.36
33286;BME280;19656;50.096;20.014;2022-07-23T20:17:38;98986.70;;;25.33;57.73
33286;BME280;19656;50.096;20.014;2022-07-23T20:22:41;98992.27;;;25.26;57.74
33286;BME280;19656;50.096;20.014;2022-07-23T20:27:44;98999.05;;;25.21;57.93
33286;BME280;19656;50.096;20.014;2022-07-23T20:32:47;99000.88;;;25.14;58.01
33286;BME280;19656;50.096;20.014;2022-07-23T20:37:50;99002.67;;;25.06;58.32
33286;BME280;19656;50.096;20.014;2022-07-23T20:42:53;99003.77;;;25.11;58.85
33286;BME280;19656;50.096;20.014;2022-07-23T20:47:56;99012.67;;;25.24;58.88
33286;BME280;19656;50.096;20.014;2022-07-23T20:53:00;99018.82;;;25.24;58.85
33286;BME280;19656;50.096;20.014;2022-07-23T20:58:03;99019.36;;;25.23;58.76
33286;BME280;19656;50.096;20.014;2022-07-23T21:03:06;99024.55;;;25.19;58.97
33286;BME280;19656;50.096;20.014;2022-07-23T21:08:10;99030.46;;;25.16;59.01
33286;BME280;19656;50.096;20.014;2022-07-23T21:13:13;99041.45;;;25.12;59.04
33286;BME280;19656;50.096;20.014;2022-07-23T21:18:18;99043.27;;;25.02;59.12
33286;BME280;19656;50.096;20.014;2022-07-23T21:23:21;99034.49;;;24.95;59.51
33286;BME280;19656;50.096;20.014;2022-07-23T21:28:24;99038.20;;;25.16;60.34
33286;BME280;19656;50.096;20.014;2022-07-23T21:33:27;99032.86;;;25.15;59.51
33286;BME280;19656;50.096;20.014;2022-07-23T21:38:30;99018.44;;;25.00;59.51
33286;BME280;19656;50.096;20.014;2022-07-23T21:43:33;99017.70;;;24.87;59.44
33286;BME280;19656;50.096;20.014;2022-07-23T21:48:36;99029.52;;;24.87;59.91
33286;BME280;19656;50.096;20.014;2022-07-23T21:53:41;99038.23;;;24.76;59.83
33286;BME280;19656;50.096;20.014;2022-07-23T21:58:44;99030.84;;;24.91;60.43
33286;BME280;19656;50.096;20.014;2022-07-23T22:03:47;99034.07;;;25.03;60.37
33286;BME280;19656;50.096;20.014;2022-07-23T22:08:50;99036.27;;;25.12;60.26
33286;BME280;19656;50.096;20.014;2022-07-23T22:13:53;99046.16;;;25.19;60.21
33286;BME280;19656;50.096;20.014;2022-07-23T22:18:56;99044.47;;;25.27;59.84
33286;BME280;19656;50.096;20.014;2022-07-23T22:23:59;99040.08;;;25.24;59.75
33286;BME280;19656;50.096;20.014;2022-07-23T22:29:02;99043.03;;;25.25;59.76
33286;BME280;19656;50.096;20.014;2022-07-23T22:34:06;99042.29;;;25.24;59.46
33286;BME280;19656;50.096;20.014;2022-07-23T22:39:09;99038.55;;;25.23;59.58
33286;BME280;19656;50.096;20.014;2022-07-23T22:44:12;99036.70;;;25.19;59.40
33286;BME280;19656;50.096;20.014;2022-07-23T22:49:15;99039.67;;;25.14;59.65
33286;BME280;19656;50.096;20.014;2022-07-23T22:54:19;99037.13;;;25.04;59.31
33286;BME280;19656;50.096;20.014;2022-07-23T22:59:22;99041.30;;;24.83;59.25
33286;BME280;19656;50.096;20.014;2022-07-23T23:04:31;99033.70;;;24.68;59.52
33286;BME280;19656;50.096;20.014;2022-07-23T23:09:34;99033.92;;;24.63;60.03
33286;BME280;19656;50.096;20.014;2022-07-23T23:14:38;99038.39;;;24.79;60.56
33286;BME280;19656;50.096;20.014;2022-07-23T23:19:41;99034.42;;;24.87;60.44
33286;BME280;19656;50.096;20.014;2022-07-23T23:24:43;99034.02;;;24.91;60.27
33286;BME280;19656;50.096;20.014;2022-07-23T23:29:46;99024.56;;;24.95;60.38
33286;BME280;19656;50.096;20.014;2022-07-23T23:34:51;99033.74;;;25.05;60.24
33286;BME280;19656;50.096;20.014;2022-07-23T23:39:54;99035.23;;;25.13;59.93
33286;BME280;19656;50.096;20.014;2022-07-23T23:44:57;99041.52;;;25.21;60.07
33286;BME280;19656;50.096;20.014;2022-07-23T23:50:00;99043.69;;;25.32;59.97
33286;BME280;19656;50.096;20.014;2022-07-23T23:55:04;99044.94;;;25.38;59.86
